createdAt,value
2023-09-15T00:00:18.769Z,3.53
2023-09-15T00:02:45.290Z,4.15
2023-09-15T00:05:13.021Z,2.85
2023-09-15T00:07:39.628Z,3.40
2023-09-15T00:10:07.896Z,4.25
2023-09-15T00:12:36.098Z,6.07
2023-09-15T00:15:08.258Z,4.25
2023-09-15T00:17:36.383Z,3.33
2023-09-15T00:20:10.171Z,2.90
2023-09-15T00:22:36.687Z,2.35
2023-09-15T00:25:04.413Z,3.38
2023-09-15T00:27:31.924Z,2.95
2023-09-15T00:29:58.293Z,3.35
2023-09-15T00:32:24.681Z,2.72
2023-09-15T00:34:51.097Z,4.55
2023-09-15T00:37:17.566Z,3.10
2023-09-15T00:39:44.057Z,1.92
2023-09-15T00:42:10.434Z,2.30
2023-09-15T00:44:36.806Z,3.25
2023-09-15T00:47:04.738Z,3.53
2023-09-15T00:49:31.195Z,2.60
2023-09-15T00:51:57.879Z,3.33
2023-09-15T00:54:24.574Z,2.38
2023-09-15T00:56:51.016Z,3.25
2023-09-15T00:59:17.395Z,3.15
2023-09-15T01:01:43.950Z,3.83
2023-09-15T01:04:10.573Z,2.95
2023-09-15T01:06:38.794Z,3.20
2023-09-15T01:09:06.537Z,3.42
2023-09-15T01:11:33.093Z,2.35
2023-09-15T01:13:59.514Z,2.20
2023-09-15T01:16:35.718Z,4.07
2023-09-15T01:19:32.836Z,2.65
2023-09-15T01:22:36.770Z,3.90
2023-09-15T01:25:21.885Z,4.35
2023-09-15T01:27:58.519Z,2.85
2023-09-15T01:30:25.877Z,3.65
2023-09-15T01:32:54.212Z,2.40
2023-09-15T01:35:20.764Z,3.47
2023-09-15T01:37:47.154Z,3.13
2023-09-15T01:40:13.591Z,2.35
2023-09-15T01:42:42.834Z,3.03
2023-09-15T01:45:10.324Z,4.63
2023-09-15T01:47:37.628Z,2.55
2023-09-15T01:50:05.094Z,5.85
2023-09-15T01:52:31.912Z,4.20
2023-09-15T01:54:58.861Z,2.78
2023-09-15T01:57:25.431Z,1.75
2023-09-15T01:59:51.975Z,2.80
2023-09-15T02:02:18.439Z,2.78
2023-09-15T02:04:44.865Z,4.60
2023-09-15T02:07:11.415Z,7.00
2023-09-15T02:09:37.883Z,4.95
2023-09-15T02:12:04.512Z,3.20
2023-09-15T02:14:30.924Z,2.17
2023-09-15T02:16:57.477Z,3.67
2023-09-15T02:19:23.950Z,4.10
2023-09-15T02:21:50.378Z,4.07
2023-09-15T02:24:17.366Z,2.53
2023-09-15T02:26:43.882Z,5.10
2023-09-15T02:29:10.435Z,4.05
2023-09-15T02:31:36.917Z,3.17
2023-09-15T02:34:03.618Z,2.42
2023-09-15T02:36:30.107Z,3.33
2023-09-15T02:38:56.584Z,3.20
2023-09-15T02:41:23.345Z,3.03
2023-09-15T02:43:49.959Z,2.85
2023-09-15T02:46:16.399Z,2.85
2023-09-15T02:48:43.300Z,3.80
2023-09-15T02:51:09.695Z,3.17
2023-09-15T02:53:36.150Z,3.47
2023-09-15T02:56:06.153Z,3.30
2023-09-15T02:58:33.228Z,3.13
2023-09-15T03:00:59.765Z,2.10
2023-09-15T03:03:26.380Z,4.30
2023-09-15T03:06:06.103Z,5.13
2023-09-15T03:08:32.602Z,2.60
2023-09-15T03:10:59.026Z,4.25
2023-09-15T03:13:25.502Z,2.40
2023-09-15T03:15:52.021Z,2.75
2023-09-15T03:18:18.712Z,6.05
2023-09-15T03:20:45.320Z,2.28
2023-09-15T03:23:11.764Z,2.50
2023-09-15T03:25:38.129Z,3.88
2023-09-15T03:28:04.611Z,5.65
2023-09-15T03:30:31.158Z,5.57
2023-09-15T03:32:57.641Z,3.15
2023-09-15T03:35:24.017Z,3.42
2023-09-15T03:37:50.571Z,5.88
2023-09-15T03:40:17.121Z,6.72
2023-09-15T03:42:43.627Z,2.38
2023-09-15T03:45:10.701Z,3.00
2023-09-15T03:47:37.259Z,3.55
2023-09-15T03:50:04.938Z,2.60
2023-09-15T03:52:31.360Z,3.25
2023-09-15T03:55:01.955Z,3.08
2023-09-15T03:57:28.995Z,3.33
2023-09-15T03:59:57.268Z,3.60
2023-09-15T04:02:24.780Z,2.25
2023-09-15T04:04:51.988Z,3.55
2023-09-15T04:07:19.106Z,2.22
2023-09-15T04:09:45.531Z,3.03
2023-09-15T04:12:11.959Z,3.85
2023-09-15T04:14:38.401Z,2.30
2023-09-15T04:17:05.113Z,3.50
2023-09-15T04:19:32.522Z,4.38
2023-09-15T04:22:00.362Z,4.03
2023-09-15T04:24:26.843Z,4.30
2023-09-15T04:26:53.305Z,4.55
2023-09-15T04:29:19.694Z,6.15
2023-09-15T04:31:46.166Z,4.82
2023-09-15T04:34:12.658Z,3.28
2023-09-15T04:36:39.144Z,7.13
2023-09-15T04:39:05.617Z,5.80
2023-09-15T04:41:32.016Z,5.25
2023-09-15T04:43:59.087Z,4.00
2023-09-15T04:46:26.191Z,4.50
2023-09-15T04:48:55.391Z,4.25
2023-09-15T04:51:23.109Z,4.65
2023-09-15T04:53:49.539Z,2.65
2023-09-15T04:56:15.941Z,3.97
2023-09-15T04:58:46.467Z,8.25
2023-09-15T05:01:17.660Z,5.75
2023-09-15T05:03:45.452Z,4.28
2023-09-15T05:06:13.135Z,8.13
2023-09-15T05:08:39.577Z,5.53
2023-09-15T05:11:06.070Z,5.47
2023-09-15T05:13:32.556Z,4.55
2023-09-15T05:15:59.211Z,3.88
2023-09-15T05:18:25.773Z,5.43
2023-09-15T05:20:52.127Z,3.95
2023-09-15T05:23:18.538Z,5.38
2023-09-15T05:25:44.978Z,4.57
2023-09-15T05:28:11.434Z,4.72
2023-09-15T05:30:37.891Z,5.32
2023-09-15T05:33:09.364Z,5.57
2023-09-15T05:35:37.531Z,4.95
2023-09-15T05:38:04.140Z,5.07
2023-09-15T05:40:30.642Z,3.75
2023-09-15T05:42:58.262Z,5.65
2023-09-15T05:45:25.378Z,5.93
2023-09-15T05:47:51.997Z,4.47
2023-09-15T05:50:18.439Z,4.35
2023-09-15T05:52:44.844Z,8.50
2023-09-15T05:55:11.334Z,5.20
2023-09-15T05:57:37.928Z,3.88
2023-09-15T06:00:05.811Z,6.93
2023-09-15T06:02:32.623Z,5.43
2023-09-15T06:05:00.389Z,5.53
2023-09-15T06:07:26.920Z,4.47
2023-09-15T06:09:53.411Z,4.40
2023-09-15T06:12:19.961Z,5.85
2023-09-15T06:14:46.509Z,9.52
2023-09-15T06:17:13.599Z,6.47
2023-09-15T06:19:40.163Z,6.45
2023-09-15T06:22:06.649Z,6.35
2023-09-15T06:24:33.437Z,5.75
2023-09-15T06:26:59.829Z,10.10
2023-09-15T06:29:26.280Z,6.40
2023-09-15T06:31:53.430Z,9.05
2023-09-15T06:34:20.052Z,7.13
2023-09-15T06:36:46.580Z,5.05
2023-09-15T06:39:12.975Z,9.45
2023-09-15T06:41:39.441Z,6.72
2023-09-15T06:44:06.065Z,9.85
2023-09-15T06:46:32.569Z,6.10
2023-09-15T06:48:59.077Z,6.85
2023-09-15T06:51:25.563Z,9.52
2023-09-15T06:53:53.351Z,6.35
2023-09-15T06:56:19.843Z,5.60
2023-09-15T06:58:48.590Z,7.15
2023-09-15T07:01:15.258Z,10.02
2023-09-15T07:03:41.843Z,7.40
2023-09-15T07:06:08.298Z,9.70
2023-09-15T07:08:34.951Z,7.93
2023-09-15T07:11:01.408Z,6.15
2023-09-15T07:13:27.891Z,9.57
2023-09-15T07:15:54.329Z,7.07
2023-09-15T07:18:20.798Z,7.50
2023-09-15T07:20:47.237Z,7.65
2023-09-15T07:23:13.669Z,7.18
2023-09-15T07:25:40.076Z,10.75
2023-09-15T07:28:06.562Z,11.68
2023-09-15T07:30:33.393Z,8.65
2023-09-15T07:33:00.842Z,9.25
2023-09-15T07:35:27.312Z,7.55
2023-09-15T07:37:53.677Z,7.90
2023-09-15T07:40:25.080Z,9.25
2023-09-15T07:42:52.066Z,7.10
2023-09-15T07:45:18.557Z,7.60
2023-09-15T07:47:44.985Z,7.70
2023-09-15T07:50:11.720Z,7.10
2023-09-15T07:52:38.232Z,8.50
2023-09-15T07:55:06.135Z,7.15
2023-09-15T07:57:33.864Z,7.88
2023-09-15T08:00:00.681Z,7.90
2023-09-15T08:02:28.014Z,6.78
2023-09-15T08:04:54.779Z,8.20
2023-09-15T08:07:21.360Z,7.38
2023-09-15T08:09:47.818Z,7.82
2023-09-15T08:12:16.242Z,8.15
2023-09-15T08:14:42.631Z,7.85
2023-09-15T08:17:16.458Z,6.47
2023-09-15T08:22:21.808Z,7.30
2023-09-15T08:24:49.624Z,7.90
2023-09-15T08:27:16.401Z,8.68
2023-09-15T08:29:42.923Z,7.75
2023-09-15T08:32:10.385Z,7.43
2023-09-15T08:34:37.301Z,7.68
2023-09-15T08:37:04.299Z,7.60
2023-09-15T08:39:30.934Z,8.77
2023-09-15T08:42:05.541Z,7.93
2023-09-15T08:44:33.174Z,8.82
2023-09-15T08:47:01.692Z,8.52
2023-09-15T08:49:29.059Z,7.82
2023-09-15T08:51:56.545Z,7.70
2023-09-15T08:54:23.656Z,8.35
2023-09-15T08:56:50.261Z,8.30
2023-09-15T08:59:17.486Z,9.68
2023-09-15T09:01:44.212Z,8.40
2023-09-15T09:04:11.565Z,8.00
2023-09-15T09:06:38.691Z,10.48
2023-09-15T09:09:05.584Z,8.52
2023-09-15T09:11:32.395Z,7.93
2023-09-15T09:13:58.897Z,10.57
2023-09-15T09:16:26.009Z,9.30
2023-09-15T09:18:57.334Z,9.50
2023-09-15T09:21:31.542Z,13.32
2023-09-15T09:23:58.519Z,8.57
2023-09-15T09:26:25.435Z,8.32
2023-09-15T09:28:56.289Z,8.38
2023-09-15T09:31:25.299Z,9.02
2023-09-15T09:33:52.048Z,8.40
2023-09-15T09:36:18.560Z,9.05
2023-09-15T09:38:47.916Z,8.90
2023-09-15T09:41:17.469Z,8.55
2023-09-15T09:43:47.799Z,9.02
2023-09-15T09:46:15.210Z,8.40
2023-09-15T09:48:43.198Z,8.07
2023-09-15T09:51:09.732Z,12.02
2023-09-15T09:53:36.714Z,8.73
2023-09-15T09:56:04.643Z,8.63
2023-09-15T09:58:32.654Z,8.70
2023-09-15T10:00:59.411Z,7.82
2023-09-15T10:03:26.310Z,8.95
2023-09-15T10:05:55.819Z,8.52
2023-09-15T10:08:22.473Z,10.73
2023-09-15T10:10:51.075Z,8.98
2023-09-15T10:13:18.527Z,8.98
2023-09-15T10:15:49.493Z,9.25
2023-09-15T10:18:16.943Z,8.73
2023-09-15T10:20:45.175Z,7.95
2023-09-15T10:23:13.986Z,11.48
2023-09-15T10:25:45.707Z,8.30
2023-09-15T10:28:16.424Z,9.43
2023-09-15T10:30:55.043Z,11.43
2023-09-15T10:33:27.017Z,10.88
2023-09-15T10:35:53.883Z,7.50
2023-09-15T10:38:30.622Z,9.77
2023-09-15T10:41:02.109Z,7.43
2023-09-15T10:43:28.497Z,10.70
2023-09-15T10:46:07.142Z,7.53
2023-09-15T10:48:45.191Z,8.05
2023-09-15T10:51:12.296Z,6.35
2023-09-15T10:53:43.672Z,7.32
2023-09-15T10:56:11.856Z,7.28
2023-09-15T10:58:38.460Z,7.93
2023-09-15T11:01:05.266Z,8.75
2023-09-15T11:03:32.944Z,6.47
2023-09-15T11:05:59.847Z,7.03
2023-09-15T11:08:26.927Z,6.95
2023-09-15T11:11:00.136Z,8.30
2023-09-15T11:13:26.625Z,8.52
2023-09-15T11:15:53.236Z,6.82
2023-09-15T11:18:26.252Z,7.10
2023-09-15T11:20:52.817Z,6.70
2023-09-15T11:23:19.258Z,5.90
2023-09-15T11:25:45.888Z,9.88
2023-09-15T11:28:18.656Z,6.60
2023-09-15T11:30:45.165Z,6.22
2023-09-15T11:33:12.185Z,6.13
2023-09-15T11:35:39.791Z,5.68
2023-09-15T11:38:06.228Z,6.78
2023-09-15T11:40:33.846Z,7.10
2023-09-15T11:43:03.063Z,5.63
2023-09-15T11:45:31.514Z,6.43
2023-09-15T11:47:59.951Z,5.80
2023-09-15T11:50:27.026Z,6.55
2023-09-15T11:52:53.944Z,7.97
2023-09-15T11:55:22.444Z,7.13
2023-09-15T11:57:49.730Z,5.50
2023-09-15T12:00:17.054Z,7.13
2023-09-15T12:02:48.004Z,6.43
2023-09-15T12:05:16.317Z,6.03
2023-09-15T12:07:44.435Z,6.20
2023-09-15T12:10:15.332Z,9.38
2023-09-15T12:12:41.970Z,5.25
2023-09-15T12:15:08.927Z,6.53
2023-09-15T12:17:38.185Z,5.25
2023-09-15T12:20:08.858Z,5.65
2023-09-15T12:22:39.653Z,4.60
2023-09-15T12:25:06.724Z,5.55
2023-09-15T12:27:35.701Z,6.30
2023-09-15T12:30:05.576Z,5.50
2023-09-15T12:32:34.078Z,6.68
2023-09-15T12:35:00.870Z,5.95
2023-09-15T12:37:28.327Z,6.15
2023-09-15T12:39:54.770Z,6.07
2023-09-15T12:42:22.654Z,8.45
2023-09-15T12:44:50.469Z,8.85
2023-09-15T12:47:18.818Z,13.07
2023-09-15T12:49:45.413Z,9.55
2023-09-15T12:52:11.845Z,3.78
2023-09-15T12:54:38.438Z,5.35
2023-09-15T12:57:05.666Z,9.40
2023-09-15T12:59:32.422Z,4.55
2023-09-15T13:01:59.064Z,4.57
2023-09-15T13:04:26.890Z,3.65
2023-09-15T13:06:55.546Z,4.68
2023-09-15T13:09:24.431Z,5.05
2023-09-15T13:11:51.326Z,4.57
2023-09-15T13:14:17.696Z,5.43
2023-09-15T13:16:44.605Z,3.75
2023-09-15T13:19:10.989Z,5.10
2023-09-15T13:21:37.412Z,7.35
2023-09-15T13:24:04.160Z,8.60
2023-09-15T13:26:30.957Z,3.45
2023-09-15T13:28:57.512Z,4.95
2023-09-15T13:31:24.029Z,4.70
2023-09-15T13:33:50.753Z,3.50
2023-09-15T13:36:20.608Z,7.88
2023-09-15T13:38:47.317Z,4.30
2023-09-15T13:41:15.309Z,5.47
2023-09-15T13:43:41.704Z,5.18
2023-09-15T13:46:09.247Z,3.30
2023-09-15T13:48:36.420Z,6.60
2023-09-15T13:51:03.527Z,3.10
2023-09-15T13:53:30.158Z,9.60
2023-09-15T13:55:56.541Z,4.47
2023-09-15T13:58:23.004Z,6.75
2023-09-15T14:01:01.037Z,3.90
2023-09-15T14:03:28.575Z,4.15
2023-09-15T14:05:55.999Z,3.67
2023-09-15T14:08:22.978Z,3.20
2023-09-15T14:10:49.449Z,4.68
2023-09-15T14:13:17.538Z,3.05
2023-09-15T14:15:47.264Z,3.75
2023-09-15T14:18:15.359Z,2.25
2023-09-15T14:20:41.954Z,2.53
2023-09-15T14:23:08.360Z,6.03
2023-09-15T14:25:34.800Z,2.95
2023-09-15T14:28:01.303Z,2.72
2023-09-15T14:30:27.743Z,7.47
2023-09-15T14:32:54.400Z,4.80
2023-09-15T14:35:27.408Z,2.92
2023-09-15T14:37:53.905Z,3.47
2023-09-15T14:40:20.430Z,3.60
2023-09-15T14:42:47.190Z,2.85
2023-09-15T14:45:13.813Z,2.45
2023-09-15T14:47:40.354Z,2.55
2023-09-15T14:50:07.456Z,3.85
2023-09-15T14:52:34.762Z,2.90
2023-09-15T14:55:01.292Z,7.85
2023-09-15T14:57:27.777Z,4.45
2023-09-15T14:59:54.271Z,2.90
2023-09-15T15:02:20.763Z,3.25
2023-09-15T15:04:47.477Z,6.03
2023-09-15T15:07:14.078Z,2.22
2023-09-15T15:09:43.171Z,3.85
2023-09-15T15:12:11.165Z,3.65
2023-09-15T15:14:38.362Z,3.20
2023-09-15T15:17:04.968Z,4.18
2023-09-15T15:19:31.442Z,2.45
2023-09-15T15:21:57.925Z,3.30
2023-09-15T15:24:24.669Z,2.60
2023-09-15T15:26:51.211Z,4.18
2023-09-15T15:29:17.875Z,4.43
2023-09-15T15:31:44.437Z,3.10
2023-09-15T15:34:10.878Z,2.85
2023-09-15T15:36:39.241Z,3.30
2023-09-15T15:39:07.681Z,2.88
2023-09-15T15:41:34.432Z,2.63
2023-09-15T15:44:00.923Z,4.22
2023-09-15T15:46:27.407Z,4.47
2023-09-15T15:48:54.094Z,3.53
2023-09-15T15:51:20.642Z,3.10
2023-09-15T15:53:47.452Z,5.03
2023-09-15T15:56:13.951Z,2.55
2023-09-15T15:58:40.382Z,2.88
2023-09-15T16:01:08.223Z,2.42
2023-09-15T16:03:34.695Z,3.88
2023-09-15T16:06:01.259Z,2.83
2023-09-15T16:08:29.510Z,2.50
2023-09-15T16:11:03.805Z,2.95
2023-09-15T16:13:30.549Z,3.53
2023-09-15T16:15:57.020Z,2.47
2023-09-15T16:18:30.880Z,2.42
2023-09-15T16:20:58.965Z,2.03
2023-09-15T16:23:28.607Z,3.17
2023-09-15T16:25:55.059Z,5.45
2023-09-15T16:28:21.749Z,2.63
2023-09-15T16:30:49.010Z,2.80
2023-09-15T16:33:15.623Z,3.08
2023-09-15T16:35:43.383Z,2.97
2023-09-15T16:38:10.337Z,3.83
2023-09-15T16:40:37.573Z,2.70
2023-09-15T16:43:06.391Z,2.40
2023-09-15T16:45:33.872Z,4.10
2023-09-15T16:48:01.261Z,4.47
2023-09-15T16:50:27.940Z,2.60
2023-09-15T16:52:55.262Z,4.35
2023-09-15T16:55:21.884Z,2.83
2023-09-15T16:57:48.391Z,5.38
2023-09-15T17:00:17.202Z,3.25
2023-09-15T17:02:43.901Z,3.67
2023-09-15T17:05:11.669Z,7.10
2023-09-15T17:07:39.334Z,3.65
2023-09-15T17:10:09.276Z,3.30
2023-09-15T17:12:36.588Z,2.60
2023-09-15T17:15:04.429Z,2.70
2023-09-15T17:17:31.831Z,3.38
2023-09-15T17:19:58.275Z,2.40
2023-09-15T17:22:24.834Z,4.07
2023-09-15T17:24:51.440Z,2.47
2023-09-15T17:27:19.138Z,4.07
2023-09-15T17:29:45.732Z,2.95
2023-09-15T17:32:12.718Z,4.10
2023-09-15T17:34:39.201Z,3.38
2023-09-15T17:37:05.755Z,3.13
2023-09-15T17:39:32.334Z,2.60
2023-09-15T17:41:58.982Z,3.35
2023-09-15T17:44:26.492Z,4.78
2023-09-15T17:46:53.029Z,3.67
2023-09-15T17:49:19.557Z,3.47
2023-09-15T17:51:46.136Z,3.65
2023-09-15T17:54:12.746Z,3.95
2023-09-15T17:56:39.411Z,3.30
2023-09-15T17:59:06.009Z,7.28
2023-09-15T18:01:33.840Z,4.10
2023-09-15T18:04:03.419Z,3.53
2023-09-15T18:06:30.259Z,2.83
2023-09-15T18:08:58.925Z,3.35
2023-09-15T18:11:26.199Z,5.88
2023-09-15T18:13:53.402Z,4.53
2023-09-15T18:16:20.650Z,3.63
2023-09-15T18:18:47.706Z,3.45
2023-09-15T18:21:14.496Z,3.00
2023-09-15T18:23:41.203Z,2.53
2023-09-15T18:26:07.744Z,3.58
2023-09-15T18:28:34.821Z,3.22
2023-09-15T18:31:01.570Z,2.70
2023-09-15T18:33:28.647Z,5.50
2023-09-15T18:35:55.463Z,3.00
2023-09-15T18:38:22.088Z,3.40
2023-09-15T18:40:48.765Z,4.82
2023-09-15T18:43:15.262Z,2.65
2023-09-15T18:45:44.449Z,3.83
2023-09-15T18:48:12.035Z,2.40
2023-09-15T18:50:40.163Z,2.65
2023-09-15T18:53:08.701Z,4.25
2023-09-15T18:55:35.186Z,2.42
2023-09-15T18:58:02.040Z,4.47
2023-09-15T19:00:28.570Z,2.40
2023-09-15T19:02:57.906Z,8.65
2023-09-15T19:05:27.523Z,2.70
2023-09-15T19:07:53.953Z,5.97
2023-09-15T19:10:20.449Z,3.15
2023-09-15T19:12:47.035Z,3.10
2023-09-15T19:15:13.723Z,4.57
2023-09-15T19:17:40.391Z,5.72
2023-09-15T19:20:07.601Z,3.00
2023-09-15T19:22:34.164Z,2.75
2023-09-15T19:25:00.686Z,4.60
2023-09-15T19:27:27.781Z,3.65
2023-09-15T19:29:57.129Z,3.90
2023-09-15T19:32:24.394Z,5.25
2023-09-15T19:34:51.104Z,2.95
2023-09-15T19:37:19.017Z,3.70
2023-09-15T19:39:45.838Z,3.17
2023-09-15T19:42:12.320Z,2.90
2023-09-15T19:44:39.030Z,7.07
2023-09-15T19:47:05.551Z,4.05
2023-09-15T19:49:32.207Z,3.25
2023-09-15T19:51:58.717Z,3.05
2023-09-15T19:54:25.295Z,4.30
2023-09-15T19:56:54.498Z,3.03
2023-09-15T19:59:21.026Z,4.63
2023-09-15T20:01:47.552Z,4.82
2023-09-15T20:04:16.174Z,3.20
2023-09-15T20:06:42.660Z,3.80
2023-09-15T20:09:10.945Z,4.07
2023-09-15T20:11:37.555Z,2.97
2023-09-15T20:14:04.021Z,3.42
2023-09-15T20:16:30.493Z,3.38
2023-09-15T20:18:57.110Z,5.47
2023-09-15T20:21:26.138Z,4.05
2023-09-15T20:23:52.925Z,3.42
2023-09-15T20:26:19.640Z,4.57
2023-09-15T20:28:47.933Z,3.80
2023-09-15T20:31:14.797Z,3.65
2023-09-15T20:33:41.497Z,3.55
2023-09-15T20:36:08.205Z,3.47
2023-09-15T20:38:35.781Z,3.50
2023-09-15T20:41:02.344Z,4.22
2023-09-15T20:43:28.908Z,5.13
2023-09-15T20:45:55.492Z,3.58
2023-09-15T20:48:22.097Z,4.32
2023-09-15T20:50:51.617Z,3.28
2023-09-15T20:53:18.075Z,4.60
2023-09-15T20:55:45.283Z,4.05
2023-09-15T20:58:12.043Z,4.05
2023-09-15T21:00:38.861Z,4.32
2023-09-15T21:03:05.711Z,3.80
2023-09-15T21:05:32.274Z,3.78
2023-09-15T21:07:58.748Z,4.10
2023-09-15T21:10:25.273Z,4.00
2023-09-15T21:12:51.743Z,4.45
2023-09-15T21:15:20.104Z,4.78
2023-09-15T21:17:48.427Z,4.22
2023-09-15T21:20:15.825Z,4.60
2023-09-15T21:22:42.862Z,4.05
2023-09-15T21:25:09.730Z,4.22
2023-09-15T21:27:36.272Z,4.40
2023-09-15T21:30:02.854Z,3.63
2023-09-15T21:32:29.340Z,3.95
2023-09-15T21:34:55.863Z,5.28
2023-09-15T21:37:22.380Z,4.72
2023-09-15T21:39:48.949Z,5.10
2023-09-15T21:42:15.419Z,4.00
2023-09-15T21:44:41.896Z,4.35
2023-09-15T21:47:08.395Z,4.22
2023-09-15T21:49:34.850Z,4.40
2023-09-15T21:52:01.311Z,4.10
2023-09-15T21:54:28.334Z,3.95
2023-09-15T21:56:54.852Z,3.90
2023-09-15T21:59:21.245Z,4.15
2023-09-15T22:01:47.994Z,4.30
2023-09-15T22:04:14.518Z,4.38
2023-09-15T22:06:41.252Z,4.65
2023-09-15T22:09:08.410Z,4.05
2023-09-15T22:11:34.984Z,5.18
2023-09-15T22:14:01.523Z,4.45
2023-09-15T22:16:28.909Z,3.88
2023-09-15T22:18:55.762Z,3.88
2023-09-15T22:21:25.220Z,4.15
2023-09-15T22:23:53.150Z,4.63
2023-09-15T22:26:19.668Z,3.80
2023-09-15T22:28:46.101Z,3.75
2023-09-15T22:31:13.879Z,3.85
2023-09-15T22:33:42.923Z,3.63
2023-09-15T22:36:10.677Z,3.65
2023-09-15T22:38:37.226Z,3.90
2023-09-15T22:41:16.281Z,3.75
2023-09-15T22:43:44.181Z,3.72
2023-09-15T22:46:20.592Z,4.28
2023-09-15T22:48:47.813Z,4.78
2023-09-15T22:51:15.020Z,3.75
2023-09-15T22:53:41.806Z,3.88
2023-09-15T22:56:08.262Z,4.60
2023-09-15T22:58:34.662Z,4.03
2023-09-15T23:01:02.678Z,4.63
2023-09-15T23:03:29.399Z,3.80
2023-09-15T23:05:55.877Z,5.32
2023-09-15T23:08:22.340Z,4.20
2023-09-15T23:10:48.790Z,3.80
2023-09-15T23:13:15.260Z,3.85
2023-09-15T23:15:44.567Z,3.83
2023-09-15T23:18:11.066Z,3.58
2023-09-15T23:20:38.225Z,6.80
2023-09-15T23:23:07.126Z,5.57
2023-09-15T23:25:34.206Z,3.92
2023-09-15T23:28:00.728Z,3.60
2023-09-15T23:30:27.360Z,3.65
2023-09-15T23:32:54.644Z,3.40
2023-09-15T23:35:21.060Z,4.18
2023-09-15T23:37:48.110Z,3.85
2023-09-15T23:40:14.576Z,3.63
2023-09-15T23:42:41.062Z,3.60
2023-09-15T23:45:08.233Z,3.90
2023-09-15T23:47:35.507Z,3.85
2023-09-15T23:50:02.040Z,4.20
2023-09-15T23:52:28.441Z,4.75
2023-09-15T23:54:54.907Z,3.58
2023-09-15T23:57:21.411Z,3.67
2023-09-15T23:59:47.872Z,3.65
